Terminal Aerodrome Forecast
Issued by NWS

Home | Current Version | Previous Version | Text Only | Print | Product List | Glossary On
Versions: 1 2 3 4 5 6 7 8 9 10 11 12 13 14 15 16 17 18 19 20 21 22 23 24
208
FTUS43 KMQT 300821 AAA
TAFSAW
TAF AMD
KSAW 300821Z 3008/0106 02007KT P6SM FEW003
      TEMPO 3010/3013 3SM BR
     FM301400 06006KT P6SM SCT050
     FM010000 07004KT P6SM BKN090=

USA.gov is the U.S. government's official web portal to all federal, state and local government web resources and services.